Current Weather

Lagrange/Callaway

Lagrange, Georgia (KLGC)

Report from: Wednesday, September 28, 2022 5:55 AM EDT
Current time: Wednesday, September 28, 2022 6:18 AM EDT

Nearby weather
Weather history
Weather forecast

Temperature11.5°C (52.7°F)
Dew point4.3°C (39.7°F)
Winds 3 kts (1.5 m/s, 3.5 mph) North (360°)
Visibility10 mi. (16.1 km)
Clouds Sky clear
Altimeter30.15 in.Hg (1021 mB)
Relative humidity61 %
Density altitude-556 ft. (-170 m)
Remarks Fully automated report
Automated weather observing station with precipitation discriminator
Flight conditions Visual Meteorological Conditions
Raw dataKLGC 280955Z AUTO 36003KT 10SM CLR 12/04 A3015 RMK AO2 T01150043
An error has occurred. This application may no longer respond until reloaded. Reload 🗙